createdAt,value
2023-04-17T00:02:20.671Z,8.53
2023-04-17T00:05:10.371Z,8.55
2023-04-17T00:08:01.392Z,8.53
2023-04-17T00:11:00.152Z,8.50
2023-04-17T00:13:52.698Z,8.53
2023-04-17T00:16:41.764Z,8.56
2023-04-17T00:19:33.441Z,8.55
2023-04-17T00:22:21.981Z,8.54
2023-04-17T00:25:15.968Z,8.53
2023-04-17T00:28:03.821Z,8.50
2023-04-17T00:30:52.585Z,8.48
2023-04-17T00:33:43.461Z,8.49
2023-04-17T00:36:35.183Z,8.49
2023-04-17T00:39:25.192Z,8.50
2023-04-17T00:42:26.331Z,8.51
2023-04-17T00:45:15.201Z,8.50
2023-04-17T00:48:07.357Z,8.48
2023-04-17T00:50:55.976Z,8.46
2023-04-17T00:53:47.658Z,8.46
2023-04-17T00:56:36.263Z,8.47
2023-04-17T00:59:32.783Z,8.43
2023-04-17T01:02:28.265Z,8.42
2023-04-17T01:05:19.274Z,8.41
2023-04-17T01:08:28.108Z,8.42
2023-04-17T01:11:18.698Z,8.39
2023-04-17T01:14:11.714Z,8.38
2023-04-17T01:17:12.801Z,8.36
2023-04-17T01:20:01.567Z,8.36
2023-04-17T01:22:58.238Z,8.34
2023-04-17T01:25:52.048Z,8.32
2023-04-17T01:28:46.237Z,8.31
2023-04-17T01:31:42.676Z,8.30
2023-04-17T01:34:44.694Z,8.27
2023-04-17T01:37:46.542Z,8.25
2023-04-17T01:40:46.709Z,8.24
2023-04-17T01:43:48.664Z,8.22
2023-04-17T01:46:51.361Z,8.20
2023-04-17T01:49:40.409Z,8.19
2023-04-17T01:55:45.618Z,8.14
2023-04-17T01:58:54.536Z,8.12
2023-04-17T02:01:45.497Z,8.08
2023-04-17T02:04:45.912Z,8.08
2023-04-17T02:07:43.963Z,8.07
2023-04-17T02:10:40.177Z,8.07
2023-04-17T02:13:42.822Z,8.07
2023-04-17T02:16:41.016Z,8.06
2023-04-17T02:19:41.067Z,8.07
2023-04-17T02:22:45.790Z,8.09
2023-04-17T02:25:48.498Z,8.09
2023-04-17T02:28:40.077Z,8.09
2023-04-17T02:31:44.175Z,8.07
2023-04-17T02:34:42.547Z,8.05
2023-04-17T02:38:06.284Z,8.04
2023-04-17T02:41:08.590Z,8.03
2023-04-17T02:44:06.849Z,8.04
2023-04-17T02:47:09.551Z,8.01
2023-04-17T02:50:12.799Z,8.02
2023-04-17T02:53:14.350Z,8.03
2023-04-17T02:56:23.604Z,7.98
2023-04-17T02:59:23.990Z,7.97
2023-04-17T03:02:16.743Z,7.95
2023-04-17T03:05:17.768Z,7.94
2023-04-17T03:08:25.203Z,7.96
2023-04-17T03:11:19.195Z,7.97
2023-04-17T03:14:17.897Z,8.00
2023-04-17T03:17:14.247Z,8.00
2023-04-17T03:20:19.990Z,8.01
2023-04-17T03:23:10.480Z,8.01
2023-04-17T03:26:03.508Z,8.01
2023-04-17T03:29:03.817Z,8.00
2023-04-17T03:32:15.337Z,8.03
2023-04-17T03:39:02.252Z,8.01
2023-04-17T03:42:05.093Z,8.02
2023-04-17T03:45:01.412Z,8.04
2023-04-17T03:47:57.501Z,8.05
2023-04-17T03:51:05.841Z,8.05
2023-04-17T03:54:02.376Z,8.06
2023-04-17T03:57:07.922Z,8.06
2023-04-17T04:00:10.769Z,8.08
2023-04-17T04:03:09.255Z,8.07
2023-04-17T04:06:04.171Z,8.08
2023-04-17T04:09:06.444Z,8.07
2023-04-17T04:12:01.824Z,8.09
2023-04-17T04:15:11.930Z,8.08
2023-04-17T04:18:17.078Z,8.08
2023-04-17T04:21:21.674Z,8.09
2023-04-17T04:24:15.809Z,8.09
2023-04-17T04:27:12.143Z,8.09
2023-04-17T04:30:10.256Z,8.07
2023-04-17T04:33:22.987Z,8.06
2023-04-17T04:36:30.170Z,8.06
2023-04-17T04:39:32.074Z,8.08
2023-04-17T04:42:38.800Z,8.09
2023-04-17T04:45:51.745Z,8.09
2023-04-17T04:48:45.760Z,8.09
2023-04-17T04:51:42.760Z,8.09
2023-04-17T04:54:31.380Z,8.13
2023-04-17T04:57:25.087Z,8.12
2023-04-17T05:00:24.203Z,8.13
2023-04-17T05:03:24.212Z,8.15
2023-04-17T05:06:24.383Z,8.13
2023-04-17T05:09:17.105Z,8.15
2023-04-17T05:12:20.440Z,8.15
2023-04-17T05:15:13.309Z,8.14
2023-04-17T05:18:00.929Z,8.15
2023-04-17T05:20:49.388Z,8.17
2023-04-17T05:23:44.369Z,8.17
2023-04-17T05:26:50.837Z,8.19
2023-04-17T05:29:48.833Z,8.21
2023-04-17T05:32:46.813Z,8.22
2023-04-17T05:35:38.605Z,8.24
2023-04-17T05:38:35.708Z,8.26
2023-04-17T05:41:58.732Z,8.26
2023-04-17T05:45:03.890Z,8.30
2023-04-17T05:48:17.015Z,8.34
2023-04-17T05:51:23.348Z,8.37
2023-04-17T05:54:17.187Z,8.37
2023-04-17T05:57:22.854Z,8.39
2023-04-17T06:00:19.463Z,8.43
2023-04-17T06:03:41.001Z,8.44
2023-04-17T06:06:29.629Z,8.46
2023-04-17T06:09:34.117Z,8.48
2023-04-17T06:15:44.176Z,8.53
2023-04-17T06:19:01.706Z,8.55
2023-04-17T06:22:07.126Z,8.56
2023-04-17T06:25:13.024Z,8.59
2023-04-17T06:28:22.897Z,8.61
2023-04-17T06:31:58.362Z,8.62
2023-04-17T06:34:59.448Z,8.63
2023-04-17T06:38:18.871Z,8.65
2023-04-17T06:44:34.042Z,8.71
2023-04-17T06:47:33.414Z,8.72
2023-04-17T06:51:12.546Z,8.74
2023-04-17T06:58:48.715Z,8.84
2023-04-17T07:01:38.232Z,8.89
2023-04-17T07:04:39.727Z,8.94
2023-04-17T07:08:02.400Z,9.01
2023-04-17T07:11:10.480Z,9.11
2023-04-17T07:14:37.649Z,9.19
2023-04-17T07:21:10.372Z,9.40
2023-04-17T07:24:10.811Z,9.51
2023-04-17T07:30:44.960Z,9.73
2023-04-17T07:34:09.861Z,9.83
2023-04-17T07:40:56.341Z,10.04
2023-04-17T07:44:07.831Z,10.12
2023-04-17T07:47:38.014Z,10.21
2023-04-17T07:50:37.006Z,10.28
2023-04-17T07:54:30.391Z,10.36
2023-04-17T08:01:07.330Z,10.50
2023-04-17T08:07:34.239Z,10.63
2023-04-17T08:10:47.088Z,10.71
2023-04-17T08:14:01.267Z,10.76
2023-04-17T08:17:12.682Z,10.86
2023-04-17T08:20:12.037Z,10.93
2023-04-17T08:23:14.227Z,11.01
2023-04-17T08:26:17.374Z,11.10
2023-04-17T08:29:24.715Z,11.20
2023-04-17T08:32:52.523Z,11.25
2023-04-17T08:35:57.152Z,11.35
2023-04-17T08:39:19.029Z,11.40
2023-04-17T08:49:58.191Z,11.83
2023-04-17T08:56:36.086Z,12.13
2023-04-17T08:59:47.140Z,12.26
2023-04-17T09:03:05.092Z,12.33
2023-04-17T09:06:02.793Z,12.49
2023-04-17T09:09:04.638Z,12.62
2023-04-17T09:12:12.015Z,12.70
2023-04-17T09:15:24.568Z,12.82
2023-04-17T09:18:32.202Z,12.97
2023-04-17T09:21:34.530Z,13.09
2023-04-17T09:24:52.109Z,13.17
2023-04-17T09:27:49.921Z,13.25
2023-04-17T09:30:55.608Z,13.29
2023-04-17T09:34:02.941Z,13.30
2023-04-17T09:37:13.050Z,13.27
2023-04-17T09:40:13.616Z,13.30
2023-04-17T09:43:09.791Z,13.29
2023-04-17T09:46:12.412Z,13.31
2023-04-17T09:49:21.139Z,13.25
2023-04-17T09:52:23.130Z,13.27
2023-04-17T09:55:19.471Z,13.24
2023-04-17T09:58:27.184Z,13.13
2023-04-17T10:02:28.904Z,13.24
2023-04-17T10:05:48.389Z,13.35
2023-04-17T10:08:52.252Z,13.45
2023-04-17T10:11:50.065Z,13.55
2023-04-17T10:14:46.999Z,13.58
2023-04-17T10:17:49.309Z,13.64
2023-04-17T10:20:57.273Z,13.70
2023-04-17T10:24:06.733Z,13.77
2023-04-17T10:26:58.604Z,13.75
2023-04-17T10:30:17.502Z,13.87
2023-04-17T10:33:31.709Z,13.99
2023-04-17T10:36:56.528Z,14.02
2023-04-17T10:40:03.142Z,14.22
2023-04-17T10:43:14.848Z,14.18
2023-04-17T10:46:14.478Z,14.33
2023-04-17T10:49:12.209Z,14.54
2023-04-17T10:52:05.328Z,14.69
2023-04-17T10:55:08.663Z,14.88
2023-04-17T10:58:22.132Z,14.95
2023-04-17T11:01:29.477Z,15.09
2023-04-17T11:04:56.323Z,15.23
2023-04-17T11:07:58.659Z,15.33
2023-04-17T11:14:24.197Z,15.70
2023-04-17T11:17:24.276Z,15.87
2023-04-17T11:20:15.219Z,16.00
2023-04-17T11:23:15.111Z,16.13
2023-04-17T11:26:20.769Z,16.24
2023-04-17T11:29:30.846Z,16.32
2023-04-17T11:32:46.441Z,16.53
2023-04-17T11:35:57.218Z,16.69
2023-04-17T11:39:05.532Z,16.83
2023-04-17T11:42:01.481Z,16.96
2023-04-17T11:44:53.663Z,17.03
2023-04-17T11:47:51.322Z,17.17
2023-04-17T11:51:03.035Z,17.35
2023-04-17T11:54:02.079Z,17.34
2023-04-17T11:57:03.929Z,17.55
2023-04-17T11:59:59.447Z,17.61
2023-04-17T12:02:53.341Z,17.84
2023-04-17T12:06:06.831Z,17.96
2023-04-17T12:09:01.895Z,18.07
2023-04-17T12:12:07.972Z,17.91
2023-04-17T12:15:16.908Z,17.95
2023-04-17T12:18:16.507Z,17.97
2023-04-17T12:21:27.193Z,17.52
2023-04-17T12:24:33.913Z,17.77
2023-04-17T12:30:59.370Z,17.87
2023-04-17T12:34:09.417Z,17.80
2023-04-17T12:37:29.464Z,17.73
2023-04-17T12:41:09.435Z,17.77
2023-04-17T12:44:15.269Z,17.68
2023-04-17T12:47:42.620Z,17.16
2023-04-17T12:51:10.837Z,17.04
2023-04-17T12:54:10.870Z,16.95
2023-04-17T12:57:30.168Z,17.15
2023-04-17T13:00:47.022Z,16.93
2023-04-17T13:03:59.509Z,16.79
2023-04-17T13:07:36.748Z,16.73
2023-04-17T13:10:38.759Z,16.78
2023-04-17T13:15:12.130Z,16.76
2023-04-17T13:16:54.514Z,16.84
2023-04-17T13:19:55.202Z,16.92
2023-04-17T13:22:55.412Z,17.06
2023-04-17T13:26:02.946Z,17.25
2023-04-17T13:29:06.673Z,17.49
2023-04-17T13:32:25.058Z,17.63
2023-04-17T13:35:36.100Z,17.67
2023-04-17T13:38:53.679Z,17.77
2023-04-17T13:41:43.642Z,17.97
2023-04-17T13:44:35.894Z,17.99
2023-04-17T13:47:33.284Z,17.76
2023-04-17T13:50:47.009Z,17.85
2023-04-17T13:53:52.722Z,17.63
2023-04-17T13:56:50.225Z,17.48
2023-04-17T13:59:51.229Z,17.53
2023-04-17T14:03:07.391Z,17.56
2023-04-17T14:05:55.139Z,17.44
2023-04-17T14:08:46.445Z,17.49
2023-04-17T14:15:08.580Z,17.36
2023-04-17T14:18:32.147Z,17.38
2023-04-17T14:21:52.714Z,17.48
2023-04-17T14:25:08.549Z,17.66
2023-04-17T14:28:26.028Z,17.89
2023-04-17T14:31:57.823Z,17.89
2023-04-17T14:34:55.397Z,18.19
2023-04-17T14:38:17.368Z,17.96
2023-04-17T14:41:42.410Z,18.36
2023-04-17T14:44:47.492Z,18.28
2023-04-17T14:48:21.397Z,18.43
2023-04-17T14:51:48.069Z,18.64
2023-04-17T14:58:25.616Z,18.86
2023-04-17T15:01:49.152Z,18.85
2023-04-17T15:04:59.978Z,18.77
2023-04-17T15:08:00.913Z,18.85
2023-04-17T15:11:29.273Z,18.83
2023-04-17T15:14:29.236Z,18.73
2023-04-17T15:17:18.580Z,18.52
2023-04-17T15:20:08.927Z,18.26
2023-04-17T15:23:28.499Z,18.11
2023-04-17T15:26:16.465Z,18.01
2023-04-17T15:29:11.027Z,18.03
2023-04-17T15:32:17.289Z,17.98
2023-04-17T15:35:14.626Z,17.83
2023-04-17T15:47:05.411Z,17.37
2023-04-17T15:50:34.357Z,17.22
2023-04-17T15:58:25.313Z,16.88
2023-04-17T16:06:52.168Z,16.38
2023-04-17T16:15:36.584Z,15.81
2023-04-17T16:23:43.782Z,15.22
2023-04-17T16:27:25.266Z,15.16
2023-04-17T16:31:04.467Z,14.98
2023-04-17T16:34:24.578Z,14.77
2023-04-17T16:38:00.880Z,14.67
2023-04-17T16:44:57.961Z,14.67
2023-04-17T16:48:00.814Z,14.60
2023-04-17T16:51:44.841Z,14.44
2023-04-17T17:09:46.387Z,13.57
2023-04-17T17:13:32.539Z,13.20
2023-04-17T17:17:11.357Z,12.96
2023-04-17T17:20:37.729Z,12.85
2023-04-17T17:25:09.212Z,12.80
2023-04-17T17:27:27.214Z,12.54
2023-04-17T17:30:57.766Z,12.51
2023-04-17T17:34:28.533Z,12.50
2023-04-17T17:42:03.618Z,12.45
2023-04-17T17:45:00.677Z,12.36
2023-04-17T17:47:19.184Z,12.63
2023-04-17T17:48:11.728Z,12.27
2023-04-17T17:51:32.193Z,12.02
2023-04-17T17:54:52.588Z,11.91
2023-04-17T17:58:04.684Z,11.76
2023-04-17T18:01:03.192Z,11.76
2023-04-17T18:04:28.983Z,11.52
2023-04-17T18:07:23.887Z,11.43
2023-04-17T18:10:37.381Z,11.38
2023-04-17T18:14:02.875Z,11.36
2023-04-17T18:17:32.730Z,11.25
2023-04-17T18:20:50.292Z,11.19
2023-04-17T18:23:57.005Z,11.21
2023-04-17T18:27:44.517Z,11.12
2023-04-17T18:36:20.659Z,10.83
2023-04-17T18:39:16.734Z,10.75
2023-04-17T18:42:18.359Z,10.69
2023-04-17T18:45:26.584Z,10.71
2023-04-17T18:48:42.165Z,10.64
2023-04-17T18:55:21.091Z,10.53
2023-04-17T18:58:29.687Z,10.48
2023-04-17T19:03:12.643Z,10.33
2023-04-17T19:06:29.063Z,10.37
2023-04-17T19:09:26.047Z,10.29
2023-04-17T19:13:01.873Z,10.28
2023-04-17T19:16:17.244Z,10.18
2023-04-17T19:19:20.550Z,10.13
2023-04-17T19:22:23.113Z,10.08
2023-04-17T19:25:20.681Z,9.97
2023-04-17T19:29:07.678Z,9.96
2023-04-17T19:32:19.868Z,9.88
2023-04-17T19:35:14.599Z,9.80
2023-04-17T19:38:34.671Z,9.78
2023-04-17T19:41:32.274Z,9.76
2023-04-17T19:44:39.185Z,9.68
2023-04-17T19:47:40.023Z,9.63
2023-04-17T19:51:00.540Z,9.64
2023-04-17T19:53:57.843Z,9.64
2023-04-17T19:56:49.571Z,9.63
2023-04-17T19:59:57.843Z,9.56
2023-04-17T20:03:14.099Z,9.53
2023-04-17T20:06:22.522Z,9.53
2023-04-17T20:10:02.955Z,9.53
2023-04-17T20:13:05.217Z,9.47
2023-04-17T20:17:10.329Z,9.45
2023-04-17T20:20:44.679Z,9.43
2023-04-17T20:24:03.866Z,9.39
2023-04-17T20:27:11.039Z,9.39
2023-04-17T20:30:46.801Z,9.41
2023-04-17T20:34:09.828Z,9.34
2023-04-17T20:37:34.621Z,9.36
2023-04-17T20:47:56.049Z,9.30
2023-04-17T20:51:20.773Z,9.28
2023-04-17T20:54:57.606Z,9.27
2023-04-17T20:58:07.776Z,9.24
2023-04-17T21:02:03.673Z,9.21
2023-04-17T21:05:16.011Z,9.14
2023-04-17T21:08:24.755Z,9.11
2023-04-17T21:11:55.708Z,9.14
2023-04-17T21:14:55.922Z,9.07
2023-04-17T21:18:03.733Z,9.00
2023-04-17T21:21:13.656Z,9.01
2023-04-17T21:24:16.849Z,9.00
2023-04-17T21:27:58.444Z,8.91
2023-04-17T21:30:56.103Z,8.91
2023-04-17T21:34:18.375Z,8.82
2023-04-17T21:37:13.872Z,8.79
2023-04-17T21:40:33.015Z,8.79
2023-04-17T21:43:29.984Z,8.76
2023-04-17T21:46:32.787Z,8.72
2023-04-17T21:49:41.300Z,8.69
2023-04-17T21:52:59.130Z,8.67
2023-04-17T21:55:54.701Z,8.57
2023-04-17T21:59:17.434Z,8.55
2023-04-17T22:02:41.869Z,8.52
2023-04-17T22:05:39.503Z,8.48
2023-04-17T22:08:49.722Z,8.44
2023-04-17T22:11:58.322Z,8.40
2023-04-17T22:15:03.541Z,8.32
2023-04-17T22:18:06.468Z,8.28
2023-04-17T22:20:58.273Z,8.18
2023-04-17T22:23:54.922Z,8.15
2023-04-17T22:26:45.738Z,8.04
2023-04-17T22:30:08.936Z,7.98
2023-04-17T22:33:12.440Z,7.96
2023-04-17T22:36:09.646Z,7.90
2023-04-17T22:39:07.729Z,7.87
2023-04-17T22:42:05.992Z,7.81
2023-04-17T22:45:04.396Z,7.75
2023-04-17T22:48:12.293Z,7.74
2023-04-17T22:51:09.777Z,7.68
2023-04-17T22:54:11.593Z,7.62
2023-04-17T22:57:24.191Z,7.58
2023-04-17T23:00:29.630Z,7.56
2023-04-17T23:03:22.864Z,7.54
2023-04-17T23:06:24.094Z,7.49
2023-04-17T23:09:31.390Z,7.49
2023-04-17T23:12:29.857Z,7.47
2023-04-17T23:15:25.804Z,7.43
2023-04-17T23:18:23.036Z,7.35
2023-04-17T23:21:28.679Z,7.33
2023-04-17T23:24:44.438Z,7.27
2023-04-17T23:27:45.032Z,7.21
2023-04-17T23:30:51.143Z,7.13
2023-04-17T23:33:50.110Z,7.10
2023-04-17T23:36:50.413Z,7.05
2023-04-17T23:39:50.507Z,7.01
2023-04-17T23:45:55.866Z,6.90
2023-04-17T23:48:58.543Z,6.84
2023-04-17T23:52:01.074Z,6.79
2023-04-17T23:55:02.155Z,6.74
2023-04-17T23:58:19.729Z,6.70
